createdAt,value
2018-05-23T00:01:19.640Z,18.67
2018-05-23T00:03:48.064Z,18.66
2018-05-23T00:06:16.562Z,18.59
2018-05-23T00:08:46.070Z,18.57
2018-05-23T00:11:14.598Z,18.56
2018-05-23T00:13:43.094Z,18.38
2018-05-23T00:16:11.722Z,18.36
2018-05-23T00:18:40.985Z,18.34
2018-05-23T00:21:09.474Z,18.34
2018-05-23T00:23:38.428Z,18.37
2018-05-23T00:26:07.010Z,18.45
2018-05-23T00:28:35.501Z,18.53
2018-05-23T00:31:04.455Z,18.53
2018-05-23T00:33:33.870Z,18.52
2018-05-23T00:36:03.165Z,18.66
2018-05-23T00:38:32.657Z,18.67
2018-05-23T00:41:01.923Z,18.65
2018-05-23T00:43:30.597Z,18.65
2018-05-23T00:45:59.156Z,18.61
2018-05-23T00:48:27.876Z,18.57
2018-05-23T00:50:56.451Z,18.64
2018-05-23T00:53:25.386Z,18.59
2018-05-23T00:55:54.645Z,18.49
2018-05-23T00:58:23.133Z,18.53
2018-05-23T01:00:51.710Z,18.57
2018-05-23T01:03:20.390Z,18.66
2018-05-23T01:05:48.902Z,18.66
2018-05-23T01:08:18.338Z,18.65
2018-05-23T01:10:47.687Z,18.72
2018-05-23T01:13:16.367Z,18.70
2018-05-23T01:15:45.398Z,18.69
2018-05-23T01:18:14.665Z,18.65
2018-05-23T01:20:43.205Z,18.59
2018-05-23T01:23:12.745Z,18.49
2018-05-23T01:25:41.259Z,18.45
2018-05-23T01:28:10.072Z,18.40
2018-05-23T01:30:38.634Z,18.34
2018-05-23T01:33:07.487Z,18.16
2018-05-23T01:35:36.006Z,18.15
2018-05-23T01:38:04.582Z,18.06
2018-05-23T01:40:34.739Z,18.03
2018-05-23T01:43:03.245Z,18.06
2018-05-23T01:45:31.947Z,18.03
2018-05-23T01:48:00.454Z,17.69
2018-05-23T01:50:29.160Z,17.38
2018-05-23T01:52:57.837Z,17.27
2018-05-23T01:55:27.095Z,17.28
2018-05-23T01:57:55.815Z,17.42
2018-05-23T02:00:25.854Z,17.68
2018-05-23T02:02:55.134Z,17.65
2018-05-23T02:05:23.638Z,17.66
2018-05-23T02:07:53.121Z,17.41
2018-05-23T02:10:23.202Z,17.48
2018-05-23T02:12:51.705Z,17.23
2018-05-23T02:15:20.269Z,17.36
2018-05-23T02:17:48.758Z,17.40
2018-05-23T02:20:17.331Z,17.51
2018-05-23T02:22:45.989Z,17.49
2018-05-23T02:25:15.233Z,17.62
2018-05-23T02:27:43.741Z,17.70
2018-05-23T02:30:13.286Z,17.72
2018-05-23T02:32:41.941Z,17.83
2018-05-23T02:35:11.386Z,17.85
2018-05-23T02:37:40.122Z,18.01
2018-05-23T02:40:09.430Z,18.02
2018-05-23T02:42:38.778Z,17.97
2018-05-23T02:45:07.330Z,17.84
2018-05-23T02:47:36.000Z,17.92
2018-05-23T02:50:04.839Z,17.94
2018-05-23T02:52:33.766Z,17.99
2018-05-23T02:55:02.270Z,17.96
2018-05-23T02:57:30.786Z,18.12
2018-05-23T02:59:59.583Z,18.10
2018-05-23T03:02:28.106Z,18.11
2018-05-23T03:04:57.437Z,18.16
2018-05-23T03:07:26.082Z,18.26
2018-05-23T03:09:55.554Z,18.26
2018-05-23T03:12:24.298Z,18.27
2018-05-23T03:14:53.066Z,18.23
2018-05-23T03:17:22.463Z,18.21
2018-05-23T03:19:51.932Z,18.23
2018-05-23T03:22:20.630Z,18.37
2018-05-23T03:24:49.204Z,18.46
2018-05-23T03:27:17.739Z,18.62
2018-05-23T03:29:47.261Z,18.58
2018-05-23T03:32:15.974Z,18.52
2018-05-23T03:34:44.478Z,18.60
2018-05-23T03:37:13.249Z,18.71
2018-05-23T03:39:41.758Z,18.61
2018-05-23T03:42:10.257Z,18.66
2018-05-23T03:44:39.882Z,18.58
2018-05-23T03:47:08.394Z,18.73
2018-05-23T03:49:36.894Z,18.76
2018-05-23T03:52:05.474Z,18.92
2018-05-23T03:54:33.982Z,19.01
2018-05-23T03:57:02.732Z,18.74
2018-05-23T03:59:49.236Z,18.86
2018-05-23T04:02:35.739Z,18.93
2018-05-23T04:05:22.109Z,18.72
2018-05-23T04:07:50.622Z,18.91
2018-05-23T04:10:19.177Z,18.88
2018-05-23T04:12:47.734Z,19.01
2018-05-23T04:15:17.083Z,18.95
2018-05-23T04:17:45.594Z,19.16
2018-05-23T04:20:15.168Z,19.47
2018-05-23T04:22:43.854Z,19.73
2018-05-23T04:25:12.357Z,19.58
2018-05-23T04:27:41.128Z,19.56
2018-05-23T04:30:09.911Z,19.89
2018-05-23T04:32:38.418Z,20.11
2018-05-23T04:35:06.965Z,20.08
2018-05-23T04:37:35.524Z,20.19
2018-05-23T04:40:04.142Z,20.51
2018-05-23T04:42:32.980Z,20.51
2018-05-23T04:45:02.257Z,20.88
2018-05-23T04:47:30.766Z,21.18
2018-05-23T04:50:00.077Z,21.30
2018-05-23T04:52:29.553Z,21.39
2018-05-23T04:54:58.968Z,21.91
2018-05-23T04:57:28.635Z,21.72
2018-05-23T04:59:57.133Z,22.17
2018-05-23T05:02:25.899Z,22.84
2018-05-23T05:04:54.553Z,23.39
2018-05-23T05:07:23.043Z,22.81
2018-05-23T05:09:51.618Z,23.02
2018-05-23T05:12:20.170Z,23.18
2018-05-23T05:14:48.670Z,23.10
2018-05-23T05:17:17.929Z,23.68
2018-05-23T05:19:46.697Z,23.96
2018-05-23T05:22:15.346Z,23.95
2018-05-23T05:24:43.853Z,24.09
2018-05-23T05:27:12.586Z,23.81
2018-05-23T05:29:41.275Z,23.75
2018-05-23T05:32:10.695Z,23.92
2018-05-23T05:34:39.634Z,24.08
2018-05-23T05:37:08.321Z,23.60
2018-05-23T05:39:36.821Z,24.15
2018-05-23T05:42:05.521Z,24.38
2018-05-23T05:44:34.023Z,24.74
2018-05-23T05:47:03.346Z,25.53
2018-05-23T05:49:32.193Z,25.14
2018-05-23T05:52:00.693Z,25.19
2018-05-23T05:54:29.958Z,25.57
2018-05-23T05:56:58.727Z,25.29
2018-05-23T05:59:27.313Z,25.43
2018-05-23T06:01:55.804Z,26.13
2018-05-23T06:04:24.514Z,25.70
2018-05-23T06:06:54.559Z,26.10
2018-05-23T06:09:23.997Z,26.07
2018-05-23T06:11:52.556Z,26.28
2018-05-23T06:14:21.049Z,26.95
2018-05-23T06:16:49.545Z,25.47
2018-05-23T06:19:18.081Z,25.51
2018-05-23T06:21:47.338Z,26.12
2018-05-23T06:24:15.833Z,25.49
2018-05-23T06:26:45.428Z,25.44
2018-05-23T06:29:14.198Z,26.38
2018-05-23T06:31:42.698Z,26.31
2018-05-23T06:34:11.413Z,26.70
2018-05-23T06:36:40.690Z,26.64
2018-05-23T06:39:09.361Z,27.57
2018-05-23T06:41:38.302Z,27.80
2018-05-23T06:44:07.569Z,28.02
2018-05-23T06:46:36.062Z,26.93
2018-05-23T06:49:05.381Z,26.84
2018-05-23T06:51:34.830Z,25.94
2018-05-23T06:54:03.369Z,26.02
2018-05-23T06:56:33.057Z,26.39
2018-05-23T06:59:02.529Z,26.27
2018-05-23T07:01:31.104Z,25.79
2018-05-23T07:03:59.830Z,26.26
2018-05-23T07:06:28.337Z,26.29
2018-05-23T07:08:57.676Z,26.41
2018-05-23T07:11:26.435Z,27.14
2018-05-23T07:13:54.934Z,26.88
2018-05-23T07:16:23.426Z,27.84
2018-05-23T07:18:52.705Z,27.04
2018-05-23T07:21:21.207Z,27.64
2018-05-23T07:23:49.693Z,26.53
2018-05-23T07:26:18.366Z,27.11
2018-05-23T07:28:47.023Z,26.67
2018-05-23T07:31:16.472Z,26.17
2018-05-23T07:33:45.018Z,27.13
2018-05-23T07:36:13.735Z,27.06
2018-05-23T07:38:42.238Z,26.77
2018-05-23T07:41:11.857Z,27.31
2018-05-23T07:43:41.861Z,28.02
2018-05-23T07:46:10.575Z,28.43
2018-05-23T07:48:40.098Z,28.16
2018-05-23T07:51:08.813Z,29.07
2018-05-23T07:53:37.332Z,28.28
2018-05-23T07:56:06.014Z,27.93
2018-05-23T07:58:34.666Z,28.04
2018-05-23T08:01:03.223Z,28.39
2018-05-23T08:03:32.506Z,29.04
2018-05-23T08:06:01.786Z,27.88
2018-05-23T08:08:31.794Z,28.76
2018-05-23T08:11:00.710Z,28.59
2018-05-23T08:13:29.213Z,28.96
2018-05-23T08:15:57.919Z,28.12
2018-05-23T08:18:26.770Z,29.06
2018-05-23T08:20:55.289Z,28.78
2018-05-23T08:23:23.777Z,27.94
2018-05-23T08:25:52.720Z,29.20
2018-05-23T08:28:21.986Z,29.40
2018-05-23T08:30:50.478Z,29.71
2018-05-23T08:33:19.026Z,30.05
2018-05-23T08:35:48.230Z,29.14
2018-05-23T08:38:16.721Z,29.54
2018-05-23T08:40:45.635Z,30.56
2018-05-23T08:43:14.998Z,29.51
2018-05-23T08:45:43.692Z,29.32
2018-05-23T08:48:12.250Z,29.36
2018-05-23T08:50:40.742Z,30.61
2018-05-23T08:53:09.233Z,29.65
2018-05-23T08:55:38.158Z,29.98
2018-05-23T08:58:06.686Z,29.09
2018-05-23T09:00:35.350Z,29.67
2018-05-23T09:03:04.016Z,28.94
2018-05-23T09:05:33.276Z,29.24
2018-05-23T09:08:01.773Z,29.77
2018-05-23T09:10:30.495Z,30.44
2018-05-23T09:12:59.948Z,30.32
2018-05-23T09:15:28.733Z,31.03
2018-05-23T09:17:57.418Z,30.49
2018-05-23T09:20:26.005Z,30.63
2018-05-23T09:22:54.518Z,31.39
2018-05-23T09:25:23.161Z,31.68
2018-05-23T09:27:51.640Z,30.47
2018-05-23T09:30:20.161Z,30.18
2018-05-23T09:32:48.854Z,31.31
2018-05-23T09:35:18.118Z,31.37
2018-05-23T09:37:46.614Z,31.11
2018-05-23T09:40:15.686Z,31.81
2018-05-23T09:42:44.190Z,30.11
2018-05-23T09:45:12.965Z,29.77
2018-05-23T09:47:43.462Z,29.66
2018-05-23T09:50:12.050Z,30.95
2018-05-23T09:52:40.551Z,30.38
2018-05-23T09:55:09.585Z,30.92
2018-05-23T09:57:38.014Z,30.25
2018-05-23T10:00:06.590Z,30.43
2018-05-23T10:02:35.502Z,30.95
2018-05-23T10:05:04.034Z,31.40
2018-05-23T10:07:33.291Z,31.24
2018-05-23T10:10:02.214Z,30.97
2018-05-23T10:12:32.250Z,32.12
2018-05-23T10:15:01.602Z,31.31
2018-05-23T10:17:30.416Z,31.30
2018-05-23T10:19:59.722Z,31.08
2018-05-23T10:22:30.003Z,31.47
2018-05-23T10:24:58.830Z,31.24
2018-05-23T10:27:27.374Z,30.47
2018-05-23T10:29:56.013Z,30.28
2018-05-23T10:32:24.704Z,30.44
2018-05-23T10:34:53.394Z,31.83
2018-05-23T10:37:21.909Z,31.73
2018-05-23T10:39:51.055Z,31.45
2018-05-23T10:42:20.326Z,31.21
2018-05-23T10:44:48.831Z,31.27
2018-05-23T10:47:17.509Z,31.39
2018-05-23T10:49:46.030Z,31.74
2018-05-23T10:52:14.537Z,30.26
2018-05-23T10:54:43.262Z,31.66
2018-05-23T10:57:11.826Z,31.56
2018-05-23T10:59:40.287Z,30.88
2018-05-23T11:02:09.009Z,30.79
2018-05-23T11:04:37.510Z,31.86
2018-05-23T11:07:06.961Z,31.75
2018-05-23T11:09:35.874Z,30.95
2018-05-23T11:12:04.415Z,31.82
2018-05-23T11:14:32.917Z,31.18
2018-05-23T11:17:01.776Z,32.49
2018-05-23T11:19:30.379Z,31.58
2018-05-23T11:21:59.589Z,31.26
2018-05-23T11:24:28.372Z,32.43
2018-05-23T11:26:56.882Z,32.95
2018-05-23T11:29:25.378Z,32.46
2018-05-23T11:31:54.686Z,30.92
2018-05-23T11:34:24.129Z,31.48
2018-05-23T11:36:52.630Z,30.97
2018-05-23T11:39:21.357Z,30.71
2018-05-23T11:41:50.610Z,30.72
2018-05-23T11:44:19.229Z,30.56
2018-05-23T11:46:49.001Z,30.71
2018-05-23T11:49:17.509Z,30.16
2018-05-23T11:51:47.509Z,30.41
2018-05-23T11:54:16.853Z,30.61
2018-05-23T11:56:46.127Z,30.91
2018-05-23T11:59:14.669Z,31.00
2018-05-23T12:01:43.240Z,30.46
2018-05-23T12:04:11.746Z,30.53
2018-05-23T12:06:40.427Z,30.10
2018-05-23T12:09:09.223Z,30.25
2018-05-23T12:11:37.907Z,30.60
2018-05-23T12:14:06.419Z,30.49
2018-05-23T12:16:35.478Z,30.17
2018-05-23T12:19:03.982Z,30.53
2018-05-23T12:21:32.650Z,30.71
2018-05-23T12:24:01.182Z,30.78
2018-05-23T12:26:30.442Z,30.07
2018-05-23T12:28:59.014Z,30.07
2018-05-23T12:31:27.674Z,30.18
2018-05-23T12:33:56.166Z,30.87
2018-05-23T12:36:25.042Z,31.16
2018-05-23T12:38:53.757Z,31.32
2018-05-23T12:41:22.253Z,31.29
2018-05-23T12:43:50.742Z,31.35
2018-05-23T12:46:19.310Z,30.99
2018-05-23T12:48:47.983Z,32.33
2018-05-23T12:51:16.545Z,32.82
2018-05-23T12:53:45.293Z,32.80
2018-05-23T12:56:14.569Z,33.12
2018-05-23T12:58:43.069Z,33.03
2018-05-23T13:01:11.619Z,33.02
2018-05-23T13:03:40.109Z,33.45
2018-05-23T13:06:08.602Z,32.67
2018-05-23T13:08:37.386Z,32.45
2018-05-23T13:11:05.906Z,33.44
2018-05-23T13:13:35.173Z,32.50
2018-05-23T13:16:03.738Z,32.27
2018-05-23T13:18:32.420Z,32.10
2018-05-23T13:21:00.917Z,32.39
2018-05-23T13:23:29.830Z,33.12
2018-05-23T13:25:59.864Z,32.45
2018-05-23T13:28:29.141Z,32.34
2018-05-23T13:30:57.829Z,31.85
2018-05-23T13:33:26.584Z,31.95
2018-05-23T13:35:55.093Z,32.56
2018-05-23T13:38:24.018Z,32.40
2018-05-23T13:40:53.292Z,32.21
2018-05-23T13:43:22.654Z,32.93
2018-05-23T13:45:51.439Z,31.97
2018-05-23T13:48:19.958Z,31.52
2018-05-23T13:50:48.710Z,30.98
2018-05-23T13:53:17.566Z,30.97
2018-05-23T13:55:46.076Z,30.76
2018-05-23T13:58:14.714Z,30.95
2018-05-23T14:18:34.189Z,30.33
2018-05-23T14:21:02.879Z,29.94
2018-05-23T14:23:31.573Z,29.53
2018-05-23T14:26:00.383Z,29.61
2018-05-23T14:28:28.904Z,30.11
2018-05-23T14:30:57.619Z,29.88
2018-05-23T14:33:26.189Z,29.81
2018-05-23T14:35:54.774Z,29.25
2018-05-23T14:38:23.566Z,29.46
2018-05-23T14:40:52.130Z,29.30
2018-05-23T14:43:20.641Z,29.49
2018-05-23T14:45:49.139Z,29.51
2018-05-23T14:48:17.874Z,29.33
2018-05-23T14:50:46.390Z,29.64
2018-05-23T14:53:14.894Z,29.70
2018-05-23T14:55:44.041Z,29.38
2018-05-23T14:58:12.470Z,29.20
2018-05-23T15:00:40.901Z,29.40
2018-05-23T15:03:09.355Z,29.41
2018-05-23T15:05:38.554Z,29.20
2018-05-23T15:08:07.745Z,29.01
2018-05-23T15:10:37.272Z,28.96
2018-05-23T15:13:05.737Z,29.16
2018-05-23T15:15:34.922Z,29.04
2018-05-23T15:18:04.656Z,28.80
2018-05-23T15:20:33.145Z,28.99
2018-05-23T15:23:01.604Z,29.07
2018-05-23T15:25:30.849Z,28.92
2018-05-23T15:27:59.267Z,28.95
2018-05-23T15:30:28.472Z,28.74
2018-05-23T15:32:57.720Z,28.89
2018-05-23T15:35:26.141Z,28.65
2018-05-23T15:37:55.365Z,28.68
2018-05-23T15:40:23.989Z,28.85
2018-05-23T15:42:52.425Z,28.97
2018-05-23T15:45:21.664Z,28.85
2018-05-23T15:47:50.155Z,28.85
2018-05-23T15:50:18.590Z,28.61
2018-05-23T15:52:47.041Z,28.77
2018-05-23T15:55:15.849Z,28.43
2018-05-23T15:57:45.042Z,28.43
2018-05-23T16:00:14.249Z,28.36
2018-05-23T16:02:44.521Z,28.53
2018-05-23T16:05:12.961Z,28.54
2018-05-23T16:07:41.390Z,28.53
2018-05-23T16:10:10.129Z,28.71
2018-05-23T16:12:38.565Z,28.79
2018-05-23T16:15:07.032Z,28.81
2018-05-23T16:17:35.513Z,28.85
2018-05-23T16:20:04.057Z,28.97
2018-05-23T16:22:32.497Z,28.80
2018-05-23T16:25:01.127Z,28.93
2018-05-23T16:27:29.570Z,28.91
2018-05-23T16:29:58.792Z,29.01
2018-05-23T16:32:27.273Z,28.88
2018-05-23T16:34:55.696Z,28.95
2018-05-23T16:37:24.133Z,28.84
2018-05-23T16:39:52.625Z,28.81
2018-05-23T16:42:21.134Z,28.69
2018-05-23T16:44:50.288Z,28.75
2018-05-23T16:47:18.991Z,28.86
2018-05-23T16:49:47.425Z,28.87
2018-05-23T16:52:15.850Z,28.72
2018-05-23T16:54:44.465Z,28.66
2018-05-23T16:57:12.901Z,28.64
2018-05-23T16:59:41.333Z,28.57
2018-05-23T17:02:09.809Z,28.48
2018-05-23T17:04:38.241Z,28.29
2018-05-23T17:07:06.679Z,28.28
2018-05-23T17:09:35.153Z,28.27
2018-05-23T17:12:03.589Z,28.22
2018-05-23T17:14:32.020Z,28.12
2018-05-23T17:17:01.473Z,28.02
2018-05-23T17:19:29.938Z,28.06
2018-05-23T17:21:59.133Z,27.92
2018-05-23T17:24:27.729Z,27.83
2018-05-23T17:26:56.337Z,27.82
2018-05-23T17:29:24.790Z,27.82
2018-05-23T17:31:53.295Z,27.74
2018-05-23T17:34:21.879Z,27.69
2018-05-23T17:36:50.331Z,27.57
2018-05-23T17:39:19.004Z,27.43
2018-05-23T17:41:48.246Z,27.36
2018-05-23T17:44:16.694Z,27.28
2018-05-23T17:46:45.393Z,27.14
2018-05-23T17:49:13.855Z,27.01
2018-05-23T17:51:43.343Z,26.88
2018-05-23T17:54:12.626Z,26.74
2018-05-23T17:56:41.305Z,26.69
2018-05-23T17:59:10.857Z,26.59
2018-05-23T18:01:39.716Z,26.51
2018-05-23T18:04:09.077Z,26.41
2018-05-23T18:06:37.557Z,26.31
2018-05-23T18:09:07.149Z,26.16
2018-05-23T18:11:35.585Z,26.16
2018-05-23T18:14:04.052Z,26.04
2018-05-23T18:16:32.553Z,25.91
2018-05-23T18:19:01.749Z,25.75
2018-05-23T18:21:30.183Z,25.61
2018-05-23T18:23:59.793Z,25.53
2018-05-23T18:26:28.225Z,25.50
2018-05-23T18:28:57.426Z,25.43
2018-05-23T18:31:26.854Z,25.32
2018-05-23T18:33:55.289Z,25.30
2018-05-23T18:36:23.722Z,25.16
2018-05-23T18:38:52.189Z,25.16
2018-05-23T18:41:20.628Z,25.06
2018-05-23T18:43:49.073Z,24.90
2018-05-23T18:46:17.554Z,24.78
2018-05-23T18:48:45.994Z,24.62
2018-05-23T18:51:15.187Z,24.58
2018-05-23T18:53:44.609Z,24.35
2018-05-23T18:56:13.054Z,24.33
2018-05-23T18:58:42.396Z,24.41
2018-05-23T19:01:11.197Z,24.32
2018-05-23T19:03:39.636Z,24.24
2018-05-23T19:06:08.845Z,24.19
2018-05-23T19:08:37.783Z,23.94
2018-05-23T19:11:06.229Z,23.79
2018-05-23T19:13:34.672Z,23.59
2018-05-23T19:16:04.080Z,23.58
2018-05-23T19:18:33.286Z,23.64
2018-05-23T19:21:02.536Z,23.54
2018-05-23T19:23:31.459Z,23.64
2018-05-23T19:26:00.861Z,23.69
2018-05-23T19:28:30.422Z,23.71
2018-05-23T19:31:00.122Z,23.75
2018-05-23T19:33:28.593Z,23.68
2018-05-23T19:35:57.017Z,23.73
2018-05-23T19:38:25.488Z,23.45
2018-05-23T19:40:53.962Z,23.26
2018-05-23T19:43:22.393Z,23.19
2018-05-23T19:45:51.825Z,22.76
2018-05-23T19:48:20.253Z,23.00
2018-05-23T19:50:48.694Z,22.97
2018-05-23T19:53:17.369Z,22.98
2018-05-23T19:55:45.814Z,23.07
2018-05-23T19:58:15.007Z,23.10
2018-05-23T20:00:43.481Z,23.00
2018-05-23T20:03:11.910Z,22.88
2018-05-23T20:05:40.342Z,22.95
2018-05-23T20:08:09.136Z,23.00
2018-05-23T20:10:37.573Z,23.17
2018-05-23T20:13:06.041Z,23.34
2018-05-23T20:15:34.525Z,23.53
2018-05-23T20:18:03.018Z,23.52
2018-05-23T20:20:31.509Z,23.65
2018-05-23T20:23:00.068Z,23.85
2018-05-23T20:25:28.560Z,23.82
2018-05-23T20:27:57.835Z,23.82
2018-05-23T20:30:26.410Z,23.76
2018-05-23T20:32:55.673Z,23.75
2018-05-23T20:35:25.678Z,23.70
2018-05-23T20:37:54.491Z,23.62
2018-05-23T20:40:24.490Z,23.47
2018-05-23T20:42:52.982Z,23.42
2018-05-23T20:45:21.738Z,23.36
2018-05-23T20:47:50.243Z,23.25
2018-05-23T20:50:18.898Z,23.22
2018-05-23T20:52:47.754Z,23.17
2018-05-23T20:55:17.154Z,23.15
2018-05-23T20:57:45.822Z,22.94
2018-05-23T21:00:15.314Z,22.84
2018-05-23T21:02:44.072Z,22.73
2018-05-23T21:05:12.769Z,22.65
2018-05-23T21:07:41.850Z,22.61
2018-05-23T21:10:10.360Z,22.53
2018-05-23T21:12:38.857Z,22.57
2018-05-23T21:15:08.186Z,22.42
2018-05-23T21:17:36.899Z,22.52
2018-05-23T21:20:05.398Z,22.57
2018-05-23T21:22:34.101Z,22.57
2018-05-23T21:25:03.367Z,22.60
2018-05-23T21:27:31.948Z,22.54
2018-05-23T21:30:00.518Z,22.47
2018-05-23T21:32:29.111Z,22.61
2018-05-23T21:34:57.791Z,22.53
2018-05-23T21:37:26.342Z,22.50
2018-05-23T21:39:55.753Z,22.29
2018-05-23T21:42:24.478Z,22.13
2018-05-23T21:44:53.026Z,22.20
2018-05-23T21:47:21.593Z,22.14
2018-05-23T21:49:50.846Z,22.05
2018-05-23T21:52:19.627Z,22.04
2018-05-23T21:54:48.174Z,22.05
2018-05-23T21:57:17.474Z,22.11
2018-05-23T21:59:47.150Z,22.28
2018-05-23T22:02:15.654Z,22.22
2018-05-23T22:04:44.914Z,22.51
2018-05-23T22:07:13.683Z,22.41
2018-05-23T22:09:42.182Z,22.26
2018-05-23T22:12:10.840Z,22.44
2018-05-23T22:14:39.401Z,22.34
2018-05-23T22:17:07.904Z,22.33
2018-05-23T22:19:36.512Z,22.18
2018-05-23T22:22:05.295Z,22.15
2018-05-23T22:24:34.625Z,21.96
2018-05-23T22:27:03.090Z,21.92
2018-05-23T22:29:31.638Z,22.01
2018-05-23T22:32:00.132Z,21.98
2018-05-23T22:34:28.831Z,22.05
2018-05-23T22:36:57.506Z,22.10
2018-05-23T22:39:26.002Z,22.09
2018-05-23T22:41:54.666Z,22.00
2018-05-23T22:44:23.210Z,21.98
2018-05-23T22:46:52.554Z,21.97
2018-05-23T22:49:21.050Z,21.79
2018-05-23T22:51:49.884Z,21.78
2018-05-23T22:54:18.389Z,21.76
2018-05-23T22:56:47.384Z,21.70
2018-05-23T22:59:16.118Z,21.65
2018-05-23T23:01:44.876Z,21.66
2018-05-23T23:04:13.873Z,21.60
2018-05-23T23:06:43.880Z,21.61
2018-05-23T23:09:13.490Z,21.68
2018-05-23T23:11:42.275Z,21.82
2018-05-23T23:14:11.202Z,21.92
2018-05-23T23:16:40.776Z,21.94
2018-05-23T23:19:09.511Z,21.98
2018-05-23T23:21:38.246Z,22.12
2018-05-23T23:24:06.934Z,22.42
2018-05-23T23:26:35.517Z,22.48
2018-05-23T23:29:04.066Z,22.12
2018-05-23T23:31:33.318Z,21.91
2018-05-23T23:34:03.322Z,21.89
2018-05-23T23:36:32.011Z,21.77
2018-05-23T23:39:00.514Z,21.80
2018-05-23T23:41:29.168Z,21.65
2018-05-23T23:43:58.026Z,21.56
2018-05-23T23:46:26.748Z,21.62
2018-05-23T23:48:55.254Z,21.93
2018-05-23T23:51:23.951Z,21.92
2018-05-23T23:53:53.946Z,22.08
2018-05-23T23:56:22.720Z,21.97
2018-05-23T23:58:51.910Z,21.86
